createdAt,value
2018-09-18T00:00:10.079Z,24.11
2018-09-18T00:02:36.062Z,24.10
2018-09-18T00:05:02.038Z,24.10
2018-09-18T00:07:28.056Z,24.10
2018-09-18T00:09:54.036Z,24.10
2018-09-18T00:12:20.054Z,24.09
2018-09-18T00:14:46.029Z,24.09
2018-09-18T00:17:12.000Z,24.09
2018-09-18T00:19:37.983Z,24.08
2018-09-18T00:22:03.952Z,24.08
2018-09-18T00:24:29.939Z,24.08
2018-09-18T00:26:55.954Z,24.06
2018-09-18T00:29:21.925Z,24.08
2018-09-18T00:31:47.903Z,24.07
2018-09-18T00:34:13.927Z,24.06
2018-09-18T00:36:39.912Z,24.05
2018-09-18T00:39:05.884Z,24.07
2018-09-18T00:41:31.861Z,24.05
2018-09-18T00:43:57.842Z,24.06
2018-09-18T00:46:23.824Z,24.05
2018-09-18T00:48:49.828Z,24.04
2018-09-18T00:51:15.811Z,24.04
2018-09-18T00:53:41.787Z,24.04
2018-09-18T00:56:07.776Z,24.03
2018-09-18T00:58:33.764Z,24.04
2018-09-18T01:00:59.746Z,24.03
2018-09-18T01:03:25.720Z,24.03
2018-09-18T01:05:51.703Z,24.03
2018-09-18T01:08:17.690Z,24.02
2018-09-18T01:10:43.663Z,24.02
2018-09-18T01:13:09.643Z,24.02
2018-09-18T01:15:35.615Z,24.02
2018-09-18T01:18:01.593Z,24.02
2018-09-18T01:20:27.581Z,24.02
2018-09-18T01:22:53.647Z,24.02
2018-09-18T01:25:19.629Z,24.02
2018-09-18T01:27:45.606Z,24.01
2018-09-18T01:30:11.638Z,24.01
2018-09-18T01:32:37.615Z,24.01
2018-09-18T01:35:03.600Z,24.02
2018-09-18T01:37:29.598Z,24.01
2018-09-18T01:39:55.582Z,24.01
2018-09-18T01:42:21.558Z,24.00
2018-09-18T01:44:47.537Z,24.00
2018-09-18T01:47:13.512Z,24.00
2018-09-18T01:49:39.522Z,23.99
2018-09-18T01:52:05.503Z,23.99
2018-09-18T01:54:31.527Z,23.99
2018-09-18T01:56:57.503Z,23.99
2018-09-18T01:59:23.483Z,23.99
2018-09-18T02:01:49.465Z,23.99
2018-09-18T02:04:15.433Z,23.98
2018-09-18T02:06:41.421Z,23.99
2018-09-18T02:09:07.393Z,23.98
2018-09-18T02:11:33.379Z,23.98
2018-09-18T02:13:59.354Z,23.98
2018-09-18T02:16:25.343Z,23.98
2018-09-18T02:18:51.316Z,23.97
2018-09-18T02:21:17.290Z,23.98
2018-09-18T02:23:43.270Z,23.97
2018-09-18T02:26:09.289Z,23.97
2018-09-18T02:28:35.277Z,23.98
2018-09-18T02:31:01.254Z,23.98
2018-09-18T02:33:27.241Z,23.97
2018-09-18T02:35:53.219Z,23.98
2018-09-18T02:38:19.197Z,23.97
2018-09-18T02:40:45.178Z,23.97
2018-09-18T02:43:11.160Z,23.96
2018-09-18T02:45:37.148Z,23.96
2018-09-18T02:48:03.141Z,23.96
2018-09-18T02:50:29.119Z,23.96
2018-09-18T02:52:55.099Z,23.95
2018-09-18T02:55:21.074Z,23.95
2018-09-18T02:57:47.057Z,23.95
2018-09-18T03:00:13.042Z,23.95
2018-09-18T03:02:39.022Z,23.95
2018-09-18T03:05:05.003Z,23.95
2018-09-18T03:07:30.980Z,23.95
2018-09-18T03:09:56.952Z,23.94
2018-09-18T03:12:22.937Z,23.95
2018-09-18T03:14:48.914Z,23.95
2018-09-18T03:17:14.899Z,23.95
2018-09-18T03:19:40.877Z,23.95
2018-09-18T03:22:06.864Z,23.95
2018-09-18T03:24:32.845Z,23.94
2018-09-18T03:26:58.832Z,23.94
2018-09-18T03:29:24.814Z,23.95
2018-09-18T03:31:50.792Z,23.94
2018-09-18T03:34:16.764Z,23.94
2018-09-18T03:36:42.743Z,23.94
2018-09-18T03:39:08.732Z,23.93
2018-09-18T03:41:34.715Z,23.93
2018-09-18T03:44:00.742Z,23.93
2018-09-18T03:46:26.751Z,23.93
2018-09-18T03:48:52.694Z,23.92
2018-09-18T03:51:18.759Z,23.92
2018-09-18T03:53:44.752Z,23.92
2018-09-18T03:56:10.730Z,23.92
2018-09-18T03:58:36.755Z,23.92
2018-09-18T04:01:02.741Z,23.92
2018-09-18T04:03:28.722Z,23.92
2018-09-18T04:05:54.702Z,23.92
2018-09-18T04:08:20.673Z,23.91
2018-09-18T04:10:46.692Z,23.91
2018-09-18T04:13:12.670Z,23.92
2018-09-18T04:15:38.644Z,23.91
2018-09-18T04:18:04.660Z,23.92
2018-09-18T04:20:30.643Z,23.93
2018-09-18T04:22:56.701Z,23.95
2018-09-18T04:25:22.689Z,23.96
2018-09-18T04:27:48.668Z,23.97
2018-09-18T04:30:14.650Z,23.98
2018-09-18T04:32:40.635Z,23.98
2018-09-18T04:35:06.616Z,23.97
2018-09-18T04:37:32.618Z,23.96
2018-09-18T04:39:58.638Z,23.97
2018-09-18T04:42:24.647Z,23.98
2018-09-18T04:44:50.584Z,23.98
2018-09-18T04:47:16.674Z,23.98
2018-09-18T04:49:42.659Z,23.99
2018-09-18T04:52:08.636Z,23.99
2018-09-18T04:54:34.664Z,23.98
2018-09-18T04:57:00.654Z,23.98
2018-09-18T04:59:26.653Z,23.98
2018-09-18T05:01:52.655Z,23.99
2018-09-18T05:04:18.768Z,23.99
2018-09-18T05:06:44.849Z,23.98
2018-09-18T05:09:10.855Z,23.99
2018-09-18T05:11:36.864Z,23.99
2018-09-18T05:14:02.858Z,24.00
2018-09-18T05:16:28.861Z,23.99
2018-09-18T05:18:54.997Z,24.01
2018-09-18T05:21:20.981Z,24.02
2018-09-18T05:23:47.089Z,24.03
2018-09-18T05:26:13.025Z,24.03
2018-09-18T05:28:39.053Z,24.02
2018-09-18T05:31:05.029Z,24.03
2018-09-18T05:33:31.024Z,24.01
2018-09-18T05:35:57.004Z,24.01
2018-09-18T05:38:22.984Z,24.01
2018-09-18T05:40:48.960Z,24.01
2018-09-18T05:43:14.979Z,24.00
2018-09-18T05:45:40.962Z,24.01
2018-09-18T05:48:06.972Z,24.01
2018-09-18T05:50:32.952Z,24.01
2018-09-18T05:52:58.940Z,24.00
2018-09-18T05:55:24.922Z,23.99
2018-09-18T05:57:50.914Z,23.99
2018-09-18T06:00:16.931Z,23.99
2018-09-18T06:02:42.911Z,23.98
2018-09-18T06:05:08.923Z,23.98
2018-09-18T06:07:34.943Z,23.98
2018-09-18T06:10:00.942Z,23.99
2018-09-18T06:12:26.976Z,24.00
2018-09-18T06:14:52.936Z,24.01
2018-09-18T06:17:18.985Z,24.03
2018-09-18T06:19:45.000Z,24.04
2018-09-18T06:22:10.982Z,24.04
2018-09-18T06:24:36.964Z,24.05
2018-09-18T06:27:03.052Z,24.06
2018-09-18T06:29:29.239Z,24.07
2018-09-18T06:31:55.187Z,24.08
2018-09-18T06:34:21.219Z,24.10
2018-09-18T06:36:47.204Z,24.10
2018-09-18T06:39:13.206Z,24.09
2018-09-18T06:41:39.200Z,24.09
2018-09-18T06:44:05.311Z,24.09
2018-09-18T06:46:31.322Z,24.08
2018-09-18T06:48:57.299Z,24.08
2018-09-18T06:51:23.308Z,24.07
2018-09-18T06:53:49.290Z,24.06
2018-09-18T06:56:15.334Z,24.05
2018-09-18T06:58:41.353Z,24.06
2018-09-18T07:01:07.394Z,24.04
2018-09-18T07:03:33.382Z,24.04
2018-09-18T07:05:59.358Z,24.03
2018-09-18T07:08:25.370Z,24.02
2018-09-18T07:10:51.368Z,24.02
2018-09-18T07:13:17.355Z,24.01
2018-09-18T07:15:43.335Z,24.03
2018-09-18T07:18:09.352Z,24.03
2018-09-18T07:20:35.312Z,24.02
2018-09-18T07:23:01.351Z,24.01
2018-09-18T07:25:27.379Z,24.02
2018-09-18T07:27:53.423Z,24.01
2018-09-18T07:30:19.462Z,24.01
2018-09-18T07:32:45.449Z,24.00
2018-09-18T07:35:11.449Z,24.00
2018-09-18T07:37:37.444Z,23.99
2018-09-18T07:40:03.433Z,23.99
2018-09-18T07:42:29.425Z,23.99
2018-09-18T07:44:55.448Z,23.97
2018-09-18T07:47:21.401Z,23.95
2018-09-18T07:49:47.384Z,23.94
2018-09-18T07:52:13.391Z,23.94
2018-09-18T07:54:39.359Z,23.95
2018-09-18T07:57:05.353Z,23.93
2018-09-18T07:59:31.329Z,23.93
2018-09-18T08:01:57.309Z,23.92
2018-09-18T08:04:23.289Z,23.92
2018-09-18T08:06:49.266Z,23.91
2018-09-18T08:09:15.247Z,23.91
2018-09-18T08:11:41.239Z,23.90
2018-09-18T08:14:07.235Z,23.90
2018-09-18T08:16:33.228Z,23.90
2018-09-18T08:19:00.237Z,23.90
2018-09-18T08:21:26.121Z,23.90
2018-09-18T08:23:52.101Z,23.90
2018-09-18T08:26:18.103Z,23.90
2018-09-18T08:28:44.629Z,23.90
2018-09-18T08:31:10.574Z,23.90
2018-09-18T08:33:37.371Z,23.90
2018-09-18T08:36:03.632Z,23.90
2018-09-18T08:38:29.606Z,23.90
2018-09-18T08:40:56.809Z,23.90
2018-09-18T08:43:22.789Z,23.90
2018-09-18T08:45:48.791Z,23.90
2018-09-18T08:48:14.832Z,23.91
2018-09-18T08:50:40.849Z,23.92
2018-09-18T08:53:07.670Z,23.92
2018-09-18T08:55:33.638Z,23.93
2018-09-18T08:57:59.897Z,23.92
2018-09-18T09:00:25.894Z,23.91
2018-09-18T09:02:51.874Z,23.91
2018-09-18T09:05:17.846Z,23.91
2018-09-18T09:07:43.906Z,23.91
2018-09-18T09:10:09.865Z,23.90
2018-09-18T09:12:35.808Z,23.89
2018-09-18T09:15:01.824Z,23.90
2018-09-18T09:17:27.763Z,23.90
2018-09-18T09:19:53.750Z,23.90
2018-09-18T09:22:19.795Z,23.90
2018-09-18T09:24:45.725Z,23.90
2018-09-18T09:27:11.723Z,23.90
2018-09-18T09:29:37.746Z,23.90
2018-09-18T09:32:03.677Z,23.89
2018-09-18T09:34:29.654Z,23.89
2018-09-18T09:36:55.722Z,23.89
2018-09-18T09:39:21.626Z,23.90
2018-09-18T09:41:47.710Z,23.89
2018-09-18T09:44:13.693Z,23.89
2018-09-18T09:46:39.678Z,23.90
2018-09-18T09:49:05.648Z,23.89
2018-09-18T09:51:31.643Z,23.90
2018-09-18T09:53:57.709Z,23.90
2018-09-18T09:56:23.670Z,23.90
2018-09-18T09:58:49.669Z,23.90
2018-09-18T10:01:15.724Z,23.90
2018-09-18T10:03:41.656Z,23.90
2018-09-18T10:06:09.284Z,23.90
2018-09-18T10:08:35.285Z,23.90
2018-09-18T10:11:01.355Z,23.90
2018-09-18T10:13:27.266Z,23.91
2018-09-18T10:15:53.263Z,23.90
2018-09-18T10:18:19.284Z,23.91
2018-09-18T10:20:45.386Z,23.91
2018-09-18T10:23:11.428Z,23.92
2018-09-18T10:25:37.408Z,23.92
2018-09-18T10:28:03.404Z,23.92
2018-09-18T10:30:29.379Z,23.93
2018-09-18T10:32:55.401Z,23.92
2018-09-18T10:35:21.392Z,23.92
2018-09-18T10:37:47.370Z,23.93
2018-09-18T10:40:13.406Z,23.93
2018-09-18T10:42:39.434Z,23.93
2018-09-18T10:45:05.348Z,23.93
2018-09-18T10:47:31.395Z,23.93
2018-09-18T10:49:57.338Z,23.93
2018-09-18T10:52:23.311Z,23.93
2018-09-18T10:54:49.371Z,23.93
2018-09-18T10:57:15.354Z,23.94
2018-09-18T10:59:41.349Z,23.93
2018-09-18T11:02:07.400Z,23.94
2018-09-18T11:04:33.335Z,23.94
2018-09-18T11:06:59.377Z,23.95
2018-09-18T11:09:25.368Z,23.94
2018-09-18T11:11:51.325Z,23.94
2018-09-18T11:14:17.600Z,23.94
2018-09-18T11:16:43.367Z,23.94
2018-09-18T11:19:09.269Z,23.95
2018-09-18T11:21:35.326Z,23.95
2018-09-18T11:24:01.249Z,23.95
2018-09-18T11:26:27.288Z,23.96
2018-09-18T11:28:53.265Z,23.96
2018-09-18T11:31:19.318Z,23.96
2018-09-18T11:33:45.224Z,23.95
2018-09-18T11:36:11.231Z,23.94
2018-09-18T11:38:37.225Z,23.94
2018-09-18T11:41:03.223Z,23.94
2018-09-18T11:43:29.225Z,23.94
2018-09-18T11:45:55.324Z,23.94
2018-09-18T11:48:21.242Z,23.95
2018-09-18T11:50:47.246Z,23.95
2018-09-18T11:53:13.245Z,23.97
2018-09-18T11:55:39.242Z,23.96
2018-09-18T11:58:05.242Z,23.96
2018-09-18T12:00:31.246Z,23.95
2018-09-18T12:02:57.280Z,23.95
2018-09-18T12:05:23.247Z,23.95
2018-09-18T12:07:49.217Z,23.95
2018-09-18T12:10:15.214Z,23.94
2018-09-18T12:12:41.211Z,23.95
2018-09-18T12:15:07.200Z,23.96
2018-09-18T12:17:33.179Z,23.96
2018-09-18T12:19:59.221Z,23.94
2018-09-18T12:22:25.283Z,23.95
2018-09-18T12:24:51.308Z,23.95
2018-09-18T12:27:17.344Z,23.95
2018-09-18T12:29:43.345Z,23.93
2018-09-18T12:32:09.347Z,23.93
2018-09-18T12:34:35.346Z,23.95
2018-09-18T12:37:01.383Z,23.93
2018-09-18T12:39:27.387Z,23.93
2018-09-18T12:41:53.464Z,23.94
2018-09-18T12:44:19.353Z,23.94
2018-09-18T12:46:45.331Z,23.94
2018-09-18T12:49:11.353Z,23.94
2018-09-18T12:51:37.337Z,23.93
2018-09-18T12:54:03.336Z,23.93
2018-09-18T12:56:29.310Z,23.93
2018-09-18T12:58:55.367Z,23.94
2018-09-18T13:01:21.292Z,23.94
2018-09-18T13:03:47.270Z,23.93
2018-09-18T13:06:13.327Z,23.93
2018-09-18T13:08:39.275Z,23.93
2018-09-18T13:11:05.274Z,23.94
2018-09-18T13:13:31.284Z,23.95
2018-09-18T13:15:57.253Z,23.94
2018-09-18T13:18:23.341Z,23.94
2018-09-18T13:20:49.271Z,23.93
2018-09-18T13:23:15.282Z,23.94
2018-09-18T13:25:41.241Z,23.95
2018-09-18T13:28:07.241Z,23.94
2018-09-18T13:30:33.342Z,23.93
2018-09-18T13:32:59.228Z,23.94
2018-09-18T13:35:25.229Z,23.95
2018-09-18T13:37:51.211Z,23.95
2018-09-18T13:40:17.210Z,23.95
2018-09-18T13:42:43.228Z,23.95
2018-09-18T13:45:09.215Z,23.95
2018-09-18T13:47:35.194Z,23.96
2018-09-18T13:50:01.195Z,23.98
2018-09-18T13:52:27.196Z,23.99
2018-09-18T13:54:53.229Z,24.00
2018-09-18T13:57:19.230Z,24.02
2018-09-18T13:59:45.242Z,24.02
2018-09-18T14:02:11.259Z,24.05
2018-09-18T14:04:37.236Z,24.07
2018-09-18T14:07:03.209Z,24.08
2018-09-18T14:09:29.279Z,24.08
2018-09-18T14:11:55.182Z,24.11
2018-09-18T14:14:21.230Z,24.12
2018-09-18T14:16:47.174Z,24.10
2018-09-18T14:19:13.141Z,24.11
2018-09-18T14:21:39.141Z,24.10
2018-09-18T14:24:05.133Z,24.10
2018-09-18T14:26:31.230Z,24.11
2018-09-18T14:28:57.132Z,24.11
2018-09-18T14:31:23.178Z,24.11
2018-09-18T14:33:49.181Z,24.11
2018-09-18T14:36:16.030Z,24.11
2018-09-18T14:38:43.472Z,24.11
2018-09-18T14:41:09.988Z,24.10
2018-09-18T14:43:36.540Z,24.11
2018-09-18T14:46:03.172Z,24.12
2018-09-18T14:48:29.734Z,24.13
2018-09-18T14:50:55.695Z,24.14
2018-09-18T14:53:21.699Z,24.16
2018-09-18T14:55:47.841Z,24.16
2018-09-18T14:58:13.842Z,24.17
2018-09-18T15:00:39.860Z,24.17
2018-09-18T15:03:05.845Z,24.17
2018-09-18T15:05:31.829Z,24.17
2018-09-18T15:07:57.818Z,24.18
2018-09-18T15:10:23.831Z,24.17
2018-09-18T15:12:49.841Z,24.18
2018-09-18T15:15:15.817Z,24.19
2018-09-18T15:17:41.846Z,24.19
2018-09-18T15:20:07.800Z,24.19
2018-09-18T15:22:33.784Z,24.21
2018-09-18T15:24:59.835Z,24.21
2018-09-18T15:27:25.857Z,24.22
2018-09-18T15:29:51.859Z,24.22
2018-09-18T15:32:18.023Z,24.23
2018-09-18T15:34:43.863Z,24.24
2018-09-18T15:37:09.869Z,24.26
2018-09-18T15:39:35.922Z,24.25
2018-09-18T15:42:01.865Z,24.25
2018-09-18T15:44:27.877Z,24.24
2018-09-18T15:46:54.002Z,24.22
2018-09-18T15:49:19.983Z,24.20
2018-09-18T15:51:46.059Z,24.20
2018-09-18T15:54:12.031Z,24.19
2018-09-18T15:56:37.995Z,24.18
2018-09-18T15:59:04.008Z,24.18
2018-09-18T16:01:33.063Z,24.17
2018-09-18T16:03:59.241Z,24.17
2018-09-18T16:06:25.166Z,24.16
2018-09-18T16:08:51.147Z,24.17
2018-09-18T16:11:17.125Z,24.16
2018-09-18T16:13:43.110Z,24.15
2018-09-18T16:16:09.116Z,24.15
2018-09-18T16:18:35.087Z,24.14
2018-09-18T16:21:01.079Z,24.14
2018-09-18T16:23:27.088Z,24.13
2018-09-18T16:25:53.074Z,24.12
2018-09-18T16:28:19.073Z,24.11
2018-09-18T16:30:45.109Z,24.13
2018-09-18T16:33:11.058Z,24.14
2018-09-18T16:35:37.056Z,24.16
2018-09-18T16:38:03.065Z,24.16
2018-09-18T16:40:29.386Z,24.17
2018-09-18T16:42:55.349Z,24.18
2018-09-18T16:45:21.438Z,24.19
2018-09-18T16:47:47.398Z,24.19
2018-09-18T16:50:13.420Z,24.19
2018-09-18T16:52:39.484Z,24.18
2018-09-18T16:55:08.941Z,24.18
2018-09-18T16:57:37.650Z,24.18
2018-09-18T17:00:03.660Z,24.17
2018-09-18T17:02:29.820Z,24.18
2018-09-18T17:04:55.647Z,24.19
2018-09-18T17:07:21.741Z,24.20
2018-09-18T17:09:47.868Z,24.19
2018-09-18T17:12:13.948Z,24.18
2018-09-18T17:14:39.943Z,24.18
2018-09-18T17:17:05.928Z,24.18
2018-09-18T17:19:31.961Z,24.18
2018-09-18T17:21:57.896Z,24.17
2018-09-18T17:24:23.926Z,24.18
2018-09-18T17:26:49.862Z,24.18
2018-09-18T17:29:15.912Z,24.19
2018-09-18T17:31:41.910Z,24.20
2018-09-18T17:34:07.866Z,24.19
2018-09-18T17:36:33.873Z,24.19
2018-09-18T17:38:59.862Z,24.22
2018-09-18T17:41:25.876Z,24.21
2018-09-18T17:43:51.889Z,24.22
2018-09-18T17:46:17.898Z,24.23
2018-09-18T17:48:43.907Z,24.24
2018-09-18T17:51:09.971Z,24.24
2018-09-18T17:53:36.004Z,24.24
2018-09-18T17:56:02.033Z,24.24
2018-09-18T17:58:28.009Z,24.23
2018-09-18T18:00:54.003Z,24.23
2018-09-18T18:03:20.086Z,24.23
2018-09-18T18:05:46.120Z,24.23
2018-09-18T18:08:12.150Z,24.22
2018-09-18T18:10:38.192Z,24.22
2018-09-18T18:13:04.154Z,24.22
2018-09-18T18:15:30.153Z,24.22
2018-09-18T18:17:56.141Z,24.21
2018-09-18T18:20:22.211Z,24.21
2018-09-18T18:22:48.120Z,24.21
2018-09-18T18:25:14.149Z,24.21
2018-09-18T18:27:40.157Z,24.22
2018-09-18T18:30:06.141Z,24.22
2018-09-18T18:32:32.138Z,24.23
2018-09-18T18:34:58.117Z,24.24
2018-09-18T18:37:24.091Z,24.26
2018-09-18T18:39:50.081Z,24.26
2018-09-18T18:42:16.066Z,24.25
2018-09-18T18:44:42.068Z,24.25
2018-09-18T18:47:08.051Z,24.24
2018-09-18T18:49:34.044Z,24.24
2018-09-18T18:52:00.080Z,24.24
2018-09-18T18:54:26.115Z,24.25
2018-09-18T18:56:52.195Z,24.27
2018-09-18T18:59:18.115Z,24.28
2018-09-18T19:01:44.102Z,24.28
2018-09-18T19:04:10.085Z,24.25
2018-09-18T19:06:36.113Z,24.24
2018-09-18T19:09:02.117Z,24.23
2018-09-18T19:11:28.101Z,24.21
2018-09-18T19:13:54.098Z,24.20
2018-09-18T19:16:20.233Z,24.19
2018-09-18T19:18:47.374Z,24.19
2018-09-18T19:21:13.278Z,24.18
2018-09-18T19:23:39.347Z,24.17
2018-09-18T19:26:06.786Z,24.16
2018-09-18T19:28:32.780Z,24.16
2018-09-18T19:30:58.848Z,24.15
2018-09-18T19:33:25.025Z,24.14
2018-09-18T19:35:50.832Z,24.14
2018-09-18T19:38:16.836Z,24.13
2018-09-18T19:40:42.822Z,24.13
2018-09-18T19:43:09.008Z,24.12
2018-09-18T19:45:34.942Z,24.12
2018-09-18T19:48:00.962Z,24.12
2018-09-18T19:50:26.976Z,24.11
2018-09-18T19:52:52.984Z,24.11
2018-09-18T19:55:19.013Z,24.10
2018-09-18T19:57:45.005Z,24.10
2018-09-18T20:00:10.973Z,24.10
2018-09-18T20:02:36.960Z,24.09
2018-09-18T20:05:02.951Z,24.09
2018-09-18T20:07:28.940Z,24.08
2018-09-18T20:09:54.926Z,24.08
2018-09-18T20:12:20.944Z,24.08
2018-09-18T20:14:46.983Z,24.08
2018-09-18T20:17:12.936Z,24.07
2018-09-18T20:19:38.980Z,24.07
2018-09-18T20:22:05.099Z,24.06
2018-09-18T20:24:31.090Z,24.06
2018-09-18T20:26:57.083Z,24.07
2018-09-18T20:29:23.072Z,24.05
2018-09-18T20:31:49.065Z,24.06
2018-09-18T20:34:15.038Z,24.06
2018-09-18T20:36:41.031Z,24.05
2018-09-18T20:39:07.009Z,24.04
2018-09-18T20:41:33.061Z,24.04
2018-09-18T20:43:59.500Z,24.03
2018-09-18T20:46:25.467Z,24.04
2018-09-18T20:48:51.449Z,24.04
2018-09-18T20:51:17.432Z,24.03
2018-09-18T20:53:43.420Z,24.03
2018-09-18T20:56:09.404Z,24.03
2018-09-18T20:58:35.399Z,24.03
2018-09-18T21:01:01.583Z,24.02
2018-09-18T21:03:27.659Z,24.03
2018-09-18T21:05:53.639Z,24.02
2018-09-18T21:08:19.645Z,24.03
2018-09-18T21:10:45.667Z,24.03
2018-09-18T21:13:11.667Z,24.02
2018-09-18T21:15:37.636Z,24.02
2018-09-18T21:18:03.621Z,24.02
2018-09-18T21:20:29.732Z,24.02
2018-09-18T21:22:55.744Z,24.02
2018-09-18T21:25:21.719Z,24.02
2018-09-18T21:27:47.704Z,24.02
2018-09-18T21:30:13.723Z,24.01
2018-09-18T21:32:39.872Z,24.02
2018-09-18T21:35:05.826Z,24.01
2018-09-18T21:37:31.807Z,24.02
2018-09-18T21:39:57.783Z,24.01
2018-09-18T21:42:23.779Z,24.01
2018-09-18T21:44:49.760Z,24.01
2018-09-18T21:47:15.736Z,24.01
2018-09-18T21:49:41.850Z,24.00
2018-09-18T21:52:07.917Z,24.00
2018-09-18T21:54:33.933Z,24.00
2018-09-18T21:56:59.970Z,24.00
2018-09-18T21:59:25.963Z,24.00
2018-09-18T22:01:51.944Z,24.00
2018-09-18T22:04:17.927Z,24.00
2018-09-18T22:06:43.922Z,24.00
2018-09-18T22:09:09.935Z,24.00
2018-09-18T22:11:35.930Z,24.00
2018-09-18T22:14:01.913Z,23.99
2018-09-18T22:16:27.901Z,24.00
2018-09-18T22:18:53.869Z,23.99
2018-09-18T22:21:19.852Z,23.99
2018-09-18T22:23:45.834Z,23.99
2018-09-18T22:26:11.815Z,23.99
2018-09-18T22:28:37.808Z,23.98
2018-09-18T22:31:03.783Z,23.99
2018-09-18T22:33:29.769Z,23.99
2018-09-18T22:35:55.750Z,23.99
2018-09-18T22:38:21.764Z,23.99
2018-09-18T22:40:47.747Z,23.99
2018-09-18T22:43:13.820Z,23.98
2018-09-18T22:45:39.749Z,23.98
2018-09-18T22:48:05.695Z,23.98
2018-09-18T22:50:31.675Z,23.98
2018-09-18T22:52:57.663Z,23.98
2018-09-18T22:55:23.639Z,23.98
2018-09-18T22:57:49.633Z,23.98
2018-09-18T23:00:15.639Z,23.98
2018-09-18T23:02:41.621Z,23.98
2018-09-18T23:05:07.610Z,23.97
2018-09-18T23:07:33.581Z,23.98
2018-09-18T23:09:59.600Z,23.97
2018-09-18T23:12:25.558Z,23.97
2018-09-18T23:14:51.531Z,23.98
2018-09-18T23:17:17.523Z,23.97
2018-09-18T23:19:43.496Z,23.97
2018-09-18T23:22:09.474Z,23.98
2018-09-18T23:24:35.499Z,23.97
2018-09-18T23:27:01.483Z,23.97
2018-09-18T23:29:27.468Z,23.97
2018-09-18T23:31:53.447Z,23.97
2018-09-18T23:34:19.433Z,23.97
2018-09-18T23:36:45.423Z,23.97
2018-09-18T23:39:11.414Z,23.97
2018-09-18T23:41:37.393Z,23.97
2018-09-18T23:44:03.455Z,23.97
2018-09-18T23:46:29.469Z,23.97
2018-09-18T23:48:55.410Z,23.97
2018-09-18T23:51:21.397Z,23.97
2018-09-18T23:53:47.370Z,23.96
2018-09-18T23:56:13.361Z,23.96
2018-09-18T23:58:39.334Z,23.96
